createdAt,value
2022-09-30T00:01:10.290Z,1.33
2022-09-30T00:06:09.094Z,4.97
2022-09-30T00:11:18.126Z,1.25
2022-09-30T00:16:17.328Z,4.65
2022-09-30T00:21:16.201Z,6.50
2022-09-30T00:26:16.302Z,1.52
2022-09-30T00:31:15.971Z,1.92
2022-09-30T00:36:13.596Z,3.33
2022-09-30T00:41:10.787Z,0.80
2022-09-30T00:46:20.754Z,1.00
2022-09-30T00:51:19.127Z,1.98
2022-09-30T00:56:28.964Z,1.73
2022-09-30T01:01:26.784Z,1.33
2022-09-30T01:06:24.838Z,2.33
2022-09-30T01:11:22.361Z,2.72
2022-09-30T01:16:33.211Z,2.22
2022-09-30T01:22:06.287Z,2.53
2022-09-30T01:27:23.021Z,1.63
2022-09-30T01:32:32.581Z,1.23
2022-09-30T01:38:04.174Z,11.20
2022-09-30T01:48:34.314Z,2.28
2022-09-30T01:53:57.615Z,6.28
2022-09-30T01:59:09.384Z,3.58
2022-09-30T02:04:12.947Z,2.10
2022-09-30T02:09:29.434Z,3.17
2022-09-30T02:14:32.479Z,4.43
2022-09-30T02:19:51.106Z,4.00
2022-09-30T02:24:55.677Z,4.93
2022-09-30T02:29:59.536Z,2.83
2022-09-30T02:35:20.078Z,1.52
2022-09-30T02:40:27.318Z,2.60
2022-09-30T02:45:24.835Z,1.65
2022-09-30T02:50:40.931Z,1.55
2022-09-30T02:55:49.749Z,2.47
2022-09-30T03:00:48.079Z,2.35
2022-09-30T03:05:45.762Z,1.83
2022-09-30T03:10:44.591Z,6.72
2022-09-30T03:15:48.357Z,2.75
2022-09-30T03:21:09.829Z,2.35
2022-09-30T03:26:23.911Z,3.40
2022-09-30T03:31:57.810Z,2.47
2022-09-30T03:37:35.821Z,2.33
2022-09-30T03:42:44.186Z,2.90
2022-09-30T03:47:46.997Z,3.78
2022-09-30T03:52:45.523Z,2.70
2022-09-30T03:57:44.866Z,3.67
2022-09-30T04:02:43.715Z,4.53
2022-09-30T04:07:41.566Z,8.18
2022-09-30T04:12:39.406Z,6.85
2022-09-30T04:17:37.912Z,5.90
2022-09-30T04:22:36.022Z,7.43
2022-09-30T04:27:33.698Z,8.20
2022-09-30T04:32:31.232Z,4.55
2022-09-30T04:37:28.526Z,4.55
2022-09-30T04:42:25.910Z,7.60
2022-09-30T04:47:25.415Z,3.42
2022-09-30T04:52:22.602Z,2.80
2022-09-30T04:57:20.510Z,4.72
2022-09-30T05:02:17.854Z,4.45
2022-09-30T05:07:15.107Z,3.63
2022-09-30T05:12:12.487Z,15.02
2022-09-30T05:17:10.708Z,3.95
2022-09-30T05:22:08.352Z,8.40
2022-09-30T05:27:05.596Z,3.83
2022-09-30T05:32:02.978Z,3.50
2022-09-30T05:37:00.369Z,9.05
2022-09-30T05:41:58.735Z,6.25
2022-09-30T05:46:56.294Z,6.18
2022-09-30T05:51:53.719Z,8.88
2022-09-30T05:56:51.068Z,7.35
2022-09-30T06:01:48.408Z,10.18
2022-09-30T06:06:45.889Z,10.38
2022-09-30T06:11:43.289Z,11.35
2022-09-30T06:16:40.677Z,5.82
2022-09-30T06:21:38.040Z,12.10
2022-09-30T06:26:35.305Z,12.48
2022-09-30T06:31:32.968Z,7.55
2022-09-30T06:36:32.316Z,5.68
2022-09-30T06:41:30.040Z,5.63
2022-09-30T06:46:31.009Z,5.70
2022-09-30T06:51:33.389Z,5.53
2022-09-30T06:56:31.696Z,6.93
2022-09-30T07:01:30.147Z,5.13
2022-09-30T07:06:27.603Z,4.70
2022-09-30T07:11:25.180Z,4.82
2022-09-30T07:16:22.509Z,5.03
2022-09-30T07:21:19.972Z,4.32
2022-09-30T07:26:19.917Z,3.10
2022-09-30T07:31:38.770Z,4.63
2022-09-30T07:36:39.006Z,3.08
2022-09-30T07:41:39.804Z,4.20
2022-09-30T07:46:40.608Z,9.65
2022-09-30T07:51:40.155Z,6.10
2022-09-30T07:57:08.142Z,5.85
2022-09-30T08:01:56.642Z,2.25
2022-09-30T08:07:00.177Z,7.22
2022-09-30T08:11:58.133Z,5.63
2022-09-30T08:17:00.583Z,1.95
2022-09-30T08:21:58.837Z,4.57
2022-09-30T08:26:56.245Z,1.40
2022-09-30T08:31:53.556Z,4.03
2022-09-30T08:36:50.731Z,3.20
2022-09-30T08:48:11.444Z,1.50
2022-09-30T08:53:20.406Z,1.50
2022-09-30T08:58:27.946Z,1.90
2022-09-30T09:03:31.175Z,3.53
2022-09-30T09:09:06.721Z,5.85
2022-09-30T09:14:43.640Z,2.80
2022-09-30T09:19:49.483Z,1.33
2022-09-30T09:24:50.992Z,1.23
2022-09-30T09:30:08.096Z,3.53
2022-09-30T09:35:15.415Z,1.70
2022-09-30T09:40:18.484Z,5.65
2022-09-30T09:45:34.479Z,1.35
2022-09-30T09:50:37.415Z,1.67
2022-09-30T09:55:37.890Z,1.73
2022-09-30T10:00:47.809Z,4.03
2022-09-30T10:05:47.840Z,2.28
2022-09-30T10:10:54.029Z,0.57
2022-09-30T10:15:59.583Z,6.28
2022-09-30T10:21:00.719Z,0.95
2022-09-30T10:26:18.488Z,1.20
2022-09-30T10:31:30.096Z,1.70
2022-09-30T10:36:40.983Z,1.10
2022-09-30T10:41:39.048Z,1.45
2022-09-30T10:46:39.769Z,0.30
2022-09-30T10:51:37.711Z,2.55
2022-09-30T10:56:40.993Z,3.50
2022-09-30T11:01:47.664Z,2.70
2022-09-30T11:06:49.780Z,0.63
2022-09-30T11:11:56.195Z,2.47
2022-09-30T11:17:20.395Z,1.85
2022-09-30T11:22:34.408Z,1.08
2022-09-30T11:27:50.343Z,6.93
2022-09-30T11:33:06.358Z,3.05
2022-09-30T11:38:06.489Z,1.30
2022-09-30T11:43:12.517Z,1.60
2022-09-30T11:48:38.433Z,0.60
2022-09-30T11:53:59.238Z,2.10
2022-09-30T12:04:05.553Z,7.97
2022-09-30T12:09:15.580Z,1.35
2022-09-30T12:14:28.859Z,1.95
2022-09-30T12:19:35.398Z,3.08
2022-09-30T12:24:39.130Z,5.78
2022-09-30T12:30:02.286Z,2.08
2022-09-30T12:35:20.567Z,2.83
2022-09-30T12:40:52.799Z,3.13
2022-09-30T12:46:02.112Z,1.40
2022-09-30T12:51:00.050Z,8.05
2022-09-30T12:56:13.142Z,1.65
2022-09-30T13:01:21.963Z,2.45
2022-09-30T13:06:22.996Z,2.63
2022-09-30T13:11:55.090Z,3.38
2022-09-30T13:17:06.919Z,1.83
2022-09-30T13:22:24.215Z,3.00
2022-09-30T13:27:37.844Z,2.03
2022-09-30T13:32:37.906Z,4.07
2022-09-30T13:42:41.961Z,2.05
2022-09-30T13:48:08.199Z,1.58
2022-09-30T13:53:13.031Z,0.70
2022-09-30T13:58:35.117Z,1.13
2022-09-30T14:04:09.505Z,1.27
2022-09-30T14:09:19.247Z,1.65
2022-09-30T14:14:51.468Z,3.00
2022-09-30T14:20:10.178Z,3.90
2022-09-30T14:25:17.203Z,3.33
2022-09-30T14:30:39.352Z,2.22
2022-09-30T14:35:41.725Z,5.47
2022-09-30T14:40:42.524Z,4.07
2022-09-30T14:45:44.186Z,3.63
2022-09-30T14:50:55.557Z,2.90
2022-09-30T14:55:53.281Z,3.60
2022-09-30T15:01:18.189Z,2.85
2022-09-30T15:06:38.202Z,6.13
2022-09-30T15:11:39.523Z,6.55
2022-09-30T15:16:49.524Z,2.58
2022-09-30T15:21:49.272Z,2.88
2022-09-30T15:26:49.234Z,7.50
2022-09-30T15:36:51.585Z,6.43
2022-09-30T15:41:49.395Z,8.45
2022-09-30T15:47:03.340Z,6.38
2022-09-30T15:52:25.066Z,4.85
2022-09-30T15:57:47.196Z,5.28
2022-09-30T16:02:44.514Z,5.15
2022-09-30T16:07:42.524Z,7.88
2022-09-30T16:12:49.442Z,9.65
2022-09-30T16:17:50.080Z,8.20
2022-09-30T16:22:48.379Z,9.98
2022-09-30T16:28:15.530Z,8.80
2022-09-30T16:33:15.514Z,9.68
2022-09-30T16:38:16.401Z,8.10
2022-09-30T16:43:13.471Z,9.68
2022-09-30T16:48:18.465Z,7.95
2022-09-30T16:53:15.726Z,16.35
2022-09-30T16:58:13.476Z,12.60
2022-09-30T17:03:15.130Z,20.25
2022-09-30T17:08:14.336Z,14.25
2022-09-30T17:13:11.684Z,26.42
2022-09-30T17:18:10.101Z,19.05
2022-09-30T17:23:07.821Z,13.50
2022-09-30T17:28:06.696Z,10.57
2022-09-30T17:33:03.951Z,12.18
2022-09-30T17:38:01.486Z,10.93
2022-09-30T17:43:07.838Z,15.35
2022-09-30T17:48:09.117Z,10.07
2022-09-30T17:53:07.875Z,7.53
2022-09-30T17:58:06.758Z,12.70
2022-09-30T18:03:05.447Z,17.10
2022-09-30T18:08:03.525Z,11.02
2022-09-30T18:13:00.707Z,8.77
2022-09-30T18:17:58.331Z,12.05
2022-09-30T18:22:55.502Z,13.35
2022-09-30T18:27:56.669Z,13.60
2022-09-30T18:32:54.966Z,12.05
2022-09-30T18:37:53.689Z,11.15
2022-09-30T18:42:58.670Z,13.80
2022-09-30T18:47:57.810Z,12.90
2022-09-30T18:52:56.119Z,14.93
2022-09-30T18:57:56.548Z,17.77
2022-09-30T19:02:53.739Z,12.48
2022-09-30T19:07:53.729Z,14.75
2022-09-30T19:17:53.280Z,11.50
2022-09-30T19:22:53.459Z,15.77
2022-09-30T19:32:48.018Z,19.38
2022-09-30T19:37:59.533Z,20.98
2022-09-30T19:42:59.913Z,22.52
2022-09-30T19:47:59.603Z,17.17
2022-09-30T19:52:58.348Z,16.98
2022-09-30T19:57:55.810Z,26.85
2022-09-30T20:02:53.070Z,16.20
2022-09-30T20:07:51.440Z,16.75
2022-09-30T20:12:48.676Z,19.27
2022-09-30T20:17:46.117Z,14.23
2022-09-30T20:22:43.765Z,12.40
2022-09-30T20:27:49.812Z,21.10
2022-09-30T20:32:49.347Z,16.20
2022-09-30T20:37:46.513Z,14.52
2022-09-30T20:42:43.975Z,14.80
2022-09-30T20:47:44.004Z,12.30
2022-09-30T20:52:41.699Z,11.70
2022-09-30T20:57:39.183Z,10.80
2022-09-30T21:02:36.450Z,13.70
2022-09-30T21:07:35.617Z,18.13
2022-09-30T21:12:33.144Z,15.13
2022-09-30T21:17:31.136Z,14.85
2022-09-30T21:22:29.188Z,13.18
2022-09-30T21:27:26.433Z,18.42
2022-09-30T21:32:23.763Z,19.25
2022-09-30T21:37:20.942Z,12.65
2022-09-30T21:42:19.347Z,15.82
2022-09-30T21:47:16.651Z,15.77
2022-09-30T21:52:13.871Z,18.88
2022-09-30T21:57:11.338Z,15.23
2022-09-30T22:02:09.358Z,24.83
2022-09-30T22:07:07.499Z,17.30
2022-09-30T22:12:08.214Z,15.93
2022-09-30T22:17:09.312Z,15.15
2022-09-30T22:22:06.614Z,22.35
2022-09-30T22:27:07.669Z,23.73
2022-09-30T22:32:04.952Z,20.58
2022-09-30T22:37:20.533Z,18.85
2022-09-30T22:42:18.323Z,17.75
2022-09-30T22:47:15.654Z,20.63
2022-09-30T22:52:13.997Z,22.13
2022-09-30T22:57:12.475Z,17.08
2022-09-30T23:02:09.994Z,20.35
2022-09-30T23:07:07.785Z,19.45
2022-09-30T23:12:05.373Z,15.82
2022-09-30T23:17:02.966Z,17.17
2022-09-30T23:22:00.167Z,16.52
2022-09-30T23:26:58.129Z,14.50
2022-09-30T23:31:55.527Z,18.60
2022-09-30T23:36:52.743Z,16.45
2022-09-30T23:41:50.541Z,18.02
2022-09-30T23:47:07.182Z,18.52
2022-09-30T23:52:08.013Z,17.88
2022-09-30T23:57:10.844Z,26.02
